createdAt,value
2019-02-26T00:01:58.887Z,67.13
2019-02-26T00:04:29.791Z,65.53
2019-02-26T00:07:00.401Z,64.23
2019-02-26T00:09:32.342Z,66.47
2019-02-26T00:12:01.563Z,65.63
2019-02-26T00:14:31.227Z,64.53
2019-02-26T00:17:00.900Z,65.40
2019-02-26T00:19:32.071Z,65.10
2019-02-26T00:22:03.828Z,66.47
2019-02-26T00:24:35.329Z,63.03
2019-02-26T00:27:08.095Z,68.60
2019-02-26T00:29:39.059Z,63.20
2019-02-26T00:32:10.086Z,67.37
2019-02-26T00:34:41.162Z,72.60
2019-02-26T00:37:12.925Z,74.77
2019-02-26T00:39:42.635Z,71.83
2019-02-26T00:42:12.306Z,69.73
2019-02-26T00:44:41.973Z,71.47
2019-02-26T00:47:11.898Z,65.90
2019-02-26T00:49:44.072Z,65.43
2019-02-26T00:52:15.578Z,66.13
2019-02-26T00:54:45.051Z,65.97
2019-02-26T00:57:16.744Z,66.13
2019-02-26T00:59:48.060Z,61.13
2019-02-26T01:02:18.036Z,68.23
2019-02-26T01:04:48.539Z,61.93
2019-02-26T01:07:21.207Z,67.53
2019-02-26T01:09:52.380Z,67.13
2019-02-26T01:12:21.917Z,65.43
2019-02-26T01:14:51.585Z,61.93
2019-02-26T01:17:21.259Z,66.70
2019-02-26T01:19:50.979Z,67.97
2019-02-26T01:22:20.635Z,65.43
2019-02-26T01:24:51.901Z,63.57
2019-02-26T01:27:21.713Z,66.70
2019-02-26T01:29:53.578Z,68.07
2019-02-26T01:32:24.834Z,66.30
2019-02-26T01:34:54.158Z,67.03
2019-02-26T01:37:25.370Z,64.37
2019-02-26T01:39:55.251Z,64.20
2019-02-26T01:42:27.020Z,63.87
2019-02-26T01:44:58.484Z,63.97
2019-02-26T01:47:28.577Z,61.83
2019-02-26T01:49:59.386Z,61.07
2019-02-26T01:52:29.946Z,61.43
2019-02-26T01:55:00.620Z,61.17
2019-02-26T01:57:31.798Z,60.23
2019-02-26T02:00:01.467Z,60.47
2019-02-26T02:02:31.139Z,60.07
2019-02-26T02:05:02.993Z,63.73
2019-02-26T02:07:32.202Z,63.40
2019-02-26T02:10:03.188Z,61.97
2019-02-26T02:12:34.441Z,64.50
2019-02-26T02:15:08.025Z,69.83
2019-02-26T02:17:40.109Z,64.33
2019-02-26T02:20:16.419Z,69.43
2019-02-26T02:22:45.525Z,66.73
2019-02-26T02:25:15.403Z,63.53
2019-02-26T02:27:47.592Z,63.73
2019-02-26T02:30:24.097Z,61.97
2019-02-26T02:32:54.270Z,60.20
2019-02-26T02:35:21.986Z,62.87
2019-02-26T02:37:53.635Z,63.43
2019-02-26T02:40:24.100Z,64.20
2019-02-26T02:42:55.420Z,61.77
2019-02-26T02:45:25.096Z,64.70
2019-02-26T02:47:57.712Z,58.53
2019-02-26T02:50:26.124Z,58.67
2019-02-26T02:52:56.932Z,58.43
2019-02-26T02:55:27.192Z,56.30
2019-02-26T02:57:59.980Z,59.50
2019-02-26T03:00:31.273Z,62.93
2019-02-26T03:03:02.011Z,55.33
2019-02-26T03:05:35.211Z,58.27
2019-02-26T03:08:04.526Z,59.07
2019-02-26T03:10:36.595Z,57.67
2019-02-26T03:13:05.891Z,59.83
2019-02-26T03:15:35.902Z,60.03
2019-02-26T03:18:07.169Z,59.30
2019-02-26T03:20:40.303Z,58.67
2019-02-26T03:23:11.964Z,58.90
2019-02-26T03:25:41.439Z,57.27
2019-02-26T03:28:11.458Z,56.67
2019-02-26T03:30:44.305Z,57.27
2019-02-26T03:33:13.396Z,60.00
2019-02-26T03:35:43.047Z,57.53
2019-02-26T03:38:12.740Z,60.33
2019-02-26T03:40:42.387Z,61.60
2019-02-26T03:43:13.226Z,59.03
2019-02-26T03:45:47.293Z,59.03
2019-02-26T03:48:19.260Z,58.43
2019-02-26T03:50:46.719Z,57.30
2019-02-26T03:53:16.398Z,59.80
2019-02-26T03:55:46.461Z,59.20
2019-02-26T03:58:16.437Z,59.03
2019-02-26T04:00:46.918Z,57.63
2019-02-26T04:03:17.389Z,57.23
2019-02-26T04:05:47.587Z,60.83
2019-02-26T04:08:21.910Z,59.77
2019-02-26T04:10:52.805Z,60.33
2019-02-26T04:13:21.897Z,54.60
2019-02-26T04:15:54.067Z,58.30
2019-02-26T04:18:23.074Z,57.67
2019-02-26T04:20:52.878Z,59.93
2019-02-26T04:23:22.559Z,58.77
2019-02-26T04:26:05.657Z,56.67
2019-02-26T04:29:18.684Z,57.13
2019-02-26T04:32:17.535Z,58.20
2019-02-26T04:34:53.900Z,57.80
2019-02-26T04:37:41.156Z,61.43
2019-02-26T04:40:20.751Z,55.77
2019-02-26T04:43:21.741Z,58.10
2019-02-26T04:46:08.518Z,56.30
2019-02-26T04:48:43.315Z,56.90
2019-02-26T04:51:13.007Z,59.23
2019-02-26T04:53:42.868Z,58.83
2019-02-26T04:56:15.009Z,58.33
2019-02-26T04:58:45.895Z,57.87
2019-02-26T05:01:18.864Z,55.57
2019-02-26T05:03:47.419Z,58.40
2019-02-26T05:06:17.101Z,58.80
2019-02-26T05:08:46.832Z,57.13
2019-02-26T05:11:30.835Z,58.90
2019-02-26T05:13:48.224Z,56.20
2019-02-26T05:16:17.870Z,56.27
2019-02-26T05:18:49.590Z,61.47
2019-02-26T05:21:19.288Z,57.40
2019-02-26T05:23:49.531Z,57.90
2019-02-26T05:26:21.246Z,59.43
2019-02-26T05:28:52.412Z,59.50
2019-02-26T05:31:22.091Z,58.13
2019-02-26T05:33:54.249Z,57.67
2019-02-26T05:36:23.179Z,58.77
2019-02-26T05:38:54.629Z,57.20
2019-02-26T05:41:24.220Z,61.00
2019-02-26T05:43:57.825Z,58.77
2019-02-26T05:46:27.492Z,57.23
2019-02-26T05:48:57.057Z,59.47
2019-02-26T05:51:27.939Z,59.67
2019-02-26T05:54:01.235Z,61.83
2019-02-26T05:56:30.532Z,58.97
2019-02-26T05:59:04.355Z,60.20
2019-02-26T06:01:31.645Z,60.97
2019-02-26T06:04:04.096Z,59.63
2019-02-26T06:06:32.715Z,63.00
2019-02-26T06:09:05.027Z,60.53
2019-02-26T06:11:36.322Z,64.37
2019-02-26T06:14:09.466Z,57.43
2019-02-26T06:16:37.137Z,60.03
2019-02-26T06:19:11.011Z,61.27
2019-02-26T06:21:43.990Z,62.60
2019-02-26T06:24:12.423Z,65.60
2019-02-26T06:26:43.128Z,62.67
2019-02-26T06:29:14.288Z,69.20
2019-02-26T06:31:47.006Z,70.17
2019-02-26T06:34:21.494Z,60.97
2019-02-26T06:36:51.583Z,63.77
2019-02-26T06:39:22.591Z,60.80
2019-02-26T06:41:53.336Z,61.33
2019-02-26T06:44:23.015Z,62.00
2019-02-26T06:46:52.485Z,61.80
2019-02-26T06:49:24.599Z,58.50
2019-02-26T06:51:54.371Z,61.73
2019-02-26T06:54:25.067Z,63.37
2019-02-26T06:56:55.666Z,63.70
2019-02-26T06:59:34.869Z,60.87
2019-02-26T07:02:04.808Z,64.07
2019-02-26T07:04:34.478Z,63.57
2019-02-26T07:07:07.650Z,57.90
2019-02-26T07:09:38.690Z,61.83
2019-02-26T07:12:08.946Z,66.50
2019-02-26T07:14:38.648Z,59.40
2019-02-26T07:17:10.355Z,61.13
2019-02-26T07:19:40.415Z,61.17
2019-02-26T07:22:11.618Z,61.63
2019-02-26T07:24:44.572Z,63.43
2019-02-26T07:27:14.749Z,63.30
2019-02-26T07:29:45.765Z,64.47
2019-02-26T07:32:17.904Z,61.87
2019-02-26T07:34:49.680Z,68.53
2019-02-26T07:37:18.685Z,67.13
2019-02-26T07:39:51.588Z,68.13
2019-02-26T07:42:23.878Z,67.73
2019-02-26T07:44:53.908Z,67.10
2019-02-26T07:47:26.621Z,68.93
2019-02-26T07:50:00.791Z,69.30
2019-02-26T07:52:30.669Z,63.33
2019-02-26T07:54:59.857Z,62.43
2019-02-26T07:57:29.656Z,61.57
2019-02-26T07:59:59.382Z,67.80
2019-02-26T08:02:30.637Z,61.93
2019-02-26T08:05:00.912Z,67.50
2019-02-26T08:07:30.817Z,64.80
2019-02-26T08:10:00.553Z,70.07
2019-02-26T08:12:35.634Z,67.73
2019-02-26T08:15:08.565Z,68.83
2019-02-26T08:17:37.170Z,69.17
2019-02-26T08:20:12.866Z,71.87
2019-02-26T08:22:43.815Z,69.33
2019-02-26T08:25:14.949Z,70.93
2019-02-26T08:27:44.660Z,70.23
2019-02-26T08:30:18.513Z,69.10
2019-02-26T08:32:51.175Z,66.93
2019-02-26T08:35:19.207Z,70.87
2019-02-26T08:37:48.863Z,66.70
2019-02-26T08:40:18.351Z,66.57
2019-02-26T08:42:49.327Z,71.13
2019-02-26T08:45:25.095Z,67.60
2019-02-26T08:47:53.696Z,66.70
2019-02-26T08:50:23.392Z,70.73
2019-02-26T08:52:55.563Z,71.47
2019-02-26T08:55:24.719Z,67.50
2019-02-26T08:57:56.767Z,67.07
2019-02-26T09:00:26.503Z,64.40
2019-02-26T09:02:56.791Z,72.23
2019-02-26T09:05:29.209Z,70.37
2019-02-26T09:07:58.084Z,66.60
2019-02-26T09:10:27.791Z,66.33
2019-02-26T09:12:57.527Z,69.07
2019-02-26T09:15:29.004Z,68.37
2019-02-26T09:18:02.820Z,65.53
2019-02-26T09:20:33.820Z,66.90
2019-02-26T09:23:03.506Z,68.90
2019-02-26T09:25:34.443Z,70.27
2019-02-26T09:28:07.328Z,65.80
2019-02-26T09:30:40.811Z,68.50
2019-02-26T09:33:11.199Z,68.17
2019-02-26T09:35:41.138Z,67.60
2019-02-26T09:38:12.316Z,65.90
2019-02-26T09:40:42.343Z,68.53
2019-02-26T09:43:12.938Z,66.33
2019-02-26T09:45:45.721Z,67.30
2019-02-26T09:48:16.953Z,67.77
2019-02-26T09:50:48.608Z,68.53
2019-02-26T09:53:18.187Z,69.03
2019-02-26T09:55:49.089Z,66.97
2019-02-26T09:58:21.197Z,64.10
2019-02-26T10:00:58.414Z,68.90
2019-02-26T10:03:29.717Z,69.50
2019-02-26T10:06:00.923Z,72.33
2019-02-26T10:08:30.951Z,70.47
2019-02-26T10:11:02.772Z,72.00
2019-02-26T10:13:33.182Z,67.47
2019-02-26T10:16:04.486Z,68.50
2019-02-26T10:18:34.373Z,67.63
2019-02-26T10:21:05.997Z,68.30
2019-02-26T10:23:35.437Z,70.77
2019-02-26T10:26:05.848Z,69.40
2019-02-26T10:28:39.465Z,67.97
2019-02-26T10:31:09.701Z,71.63
2019-02-26T10:33:41.136Z,70.13
2019-02-26T10:36:12.965Z,69.47
2019-02-26T10:38:42.339Z,67.93
2019-02-26T10:41:12.015Z,68.80
2019-02-26T10:43:41.778Z,69.87
2019-02-26T10:46:11.469Z,72.40
2019-02-26T10:48:43.345Z,71.07
2019-02-26T10:51:16.718Z,70.47
2019-02-26T10:53:45.316Z,72.50
2019-02-26T10:56:14.987Z,69.67
2019-02-26T10:58:46.245Z,71.30
2019-02-26T11:01:17.789Z,77.30
2019-02-26T11:03:49.335Z,71.40
2019-02-26T11:06:20.111Z,71.90
2019-02-26T11:08:51.174Z,75.13
2019-02-26T11:11:21.202Z,70.13
2019-02-26T11:13:53.642Z,70.23
2019-02-26T11:16:25.371Z,70.57
2019-02-26T11:18:54.929Z,72.50
2019-02-26T11:21:25.604Z,71.50
2019-02-26T11:23:55.594Z,69.37
2019-02-26T11:26:25.292Z,73.50
2019-02-26T11:28:55.074Z,71.03
2019-02-26T11:31:25.552Z,69.17
2019-02-26T11:33:57.294Z,70.10
2019-02-26T11:36:28.180Z,69.80
2019-02-26T11:39:02.279Z,72.93
2019-02-26T11:41:35.427Z,70.57
2019-02-26T11:44:07.120Z,70.53
2019-02-26T11:46:36.478Z,70.70
2019-02-26T11:49:06.183Z,67.67
2019-02-26T11:51:37.328Z,68.90
2019-02-26T11:54:08.225Z,72.47
2019-02-26T11:56:43.517Z,74.07
2019-02-26T11:59:14.286Z,72.03
2019-02-26T12:01:43.365Z,73.70
2019-02-26T12:04:14.206Z,70.97
2019-02-26T12:06:44.485Z,73.60
2019-02-26T12:09:16.158Z,70.97
2019-02-26T12:11:46.157Z,73.40
2019-02-26T12:14:16.929Z,69.03
2019-02-26T12:16:47.249Z,75.83
2019-02-26T12:19:19.374Z,75.27
2019-02-26T12:21:49.521Z,76.00
2019-02-26T12:24:20.513Z,74.20
2019-02-26T12:26:52.331Z,74.57
2019-02-26T12:29:23.567Z,76.03
2019-02-26T12:31:58.184Z,71.00
2019-02-26T12:34:30.852Z,69.83
2019-02-26T12:37:02.791Z,68.93
2019-02-26T12:39:31.914Z,73.47
2019-02-26T12:42:02.440Z,72.23
2019-02-26T12:44:34.777Z,71.13
2019-02-26T12:47:04.119Z,73.37
2019-02-26T12:49:36.534Z,72.13
2019-02-26T12:52:06.686Z,69.53
2019-02-26T12:54:37.821Z,70.70
2019-02-26T12:57:07.784Z,68.80
2019-02-26T12:59:37.454Z,69.60
2019-02-26T13:02:10.041Z,68.20
2019-02-26T13:04:40.855Z,75.20
2019-02-26T13:07:09.979Z,70.73
2019-02-26T13:09:50.412Z,69.57
2019-02-26T13:12:19.829Z,70.77
2019-02-26T13:14:47.581Z,69.27
2019-02-26T13:17:21.007Z,71.80
2019-02-26T13:19:58.144Z,68.13
2019-02-26T13:22:23.409Z,70.10
2019-02-26T13:24:53.168Z,72.97
2019-02-26T13:27:22.852Z,67.33
2019-02-26T13:30:13.279Z,71.13
2019-02-26T13:33:05.100Z,70.70
2019-02-26T13:35:17.225Z,76.47
2019-02-26T13:37:51.503Z,71.67
2019-02-26T13:40:23.967Z,74.83
2019-02-26T13:45:27.581Z,69.80
2019-02-26T13:48:01.171Z,71.53
2019-02-26T13:50:34.711Z,70.67
2019-02-26T13:53:04.689Z,76.87
2019-02-26T13:55:36.020Z,76.63
2019-02-26T13:58:11.694Z,79.23
2019-02-26T14:00:41.203Z,72.50
2019-02-26T14:03:12.251Z,74.13
2019-02-26T14:05:41.926Z,69.47
2019-02-26T14:08:11.783Z,76.37
2019-02-26T14:10:41.575Z,73.80
2019-02-26T14:13:11.595Z,74.50
2019-02-26T14:15:45.614Z,74.47
2019-02-26T14:18:17.338Z,73.17
2019-02-26T14:20:49.771Z,76.23
2019-02-26T14:23:20.230Z,71.13
2019-02-26T14:25:49.911Z,78.20
2019-02-26T14:28:19.571Z,72.37
2019-02-26T14:30:49.270Z,76.23
2019-02-26T14:33:18.969Z,73.53
2019-02-26T14:35:48.635Z,74.80
2019-02-26T14:38:18.313Z,75.43
2019-02-26T14:40:48.025Z,79.10
2019-02-26T14:43:19.160Z,76.10
2019-02-26T14:45:48.832Z,76.17
2019-02-26T14:48:18.603Z,75.67
2019-02-26T14:50:48.279Z,74.70
2019-02-26T14:53:17.938Z,76.23
2019-02-26T14:55:48.218Z,79.93
2019-02-26T14:58:18.171Z,77.47
2019-02-26T15:00:57.171Z,76.63
2019-02-26T15:03:19.925Z,79.07
2019-02-26T15:05:50.917Z,77.00
2019-02-26T15:08:20.607Z,78.50
2019-02-26T15:10:51.928Z,77.13
2019-02-26T15:13:25.521Z,78.40
2019-02-26T15:15:55.579Z,75.53
2019-02-26T15:18:25.258Z,79.00
2019-02-26T15:20:54.958Z,80.77
2019-02-26T15:23:24.638Z,80.87
2019-02-26T15:25:54.363Z,80.20
2019-02-26T15:28:25.664Z,81.43
2019-02-26T15:30:55.634Z,84.10
2019-02-26T15:33:25.333Z,84.63
2019-02-26T15:35:56.887Z,88.90
2019-02-26T15:38:29.620Z,94.37
2019-02-26T15:41:00.537Z,86.87
2019-02-26T15:43:30.329Z,89.00
2019-02-26T15:46:01.181Z,90.07
2019-02-26T15:48:30.914Z,97.37
2019-02-26T15:51:02.488Z,90.73
2019-02-26T15:53:32.179Z,93.43
2019-02-26T15:56:02.851Z,93.97
2019-02-26T15:58:34.194Z,94.57
2019-02-26T16:01:07.610Z,97.23
2019-02-26T16:03:37.568Z,96.33
2019-02-26T16:06:07.352Z,96.03
2019-02-26T16:08:38.533Z,100.30
2019-02-26T16:11:13.190Z,96.07
2019-02-26T16:13:45.015Z,95.93
2019-02-26T16:16:14.678Z,93.80
2019-02-26T16:18:44.542Z,96.83
2019-02-26T16:21:18.606Z,92.67
2019-02-26T16:23:47.241Z,92.77
2019-02-26T16:26:16.978Z,92.27
2019-02-26T16:28:47.535Z,92.57
2019-02-26T16:31:17.194Z,89.10
2019-02-26T16:33:47.298Z,91.17
2019-02-26T16:36:17.814Z,91.90
2019-02-26T16:38:50.547Z,91.23
2019-02-26T16:41:18.878Z,94.00
2019-02-26T16:43:51.667Z,92.13
2019-02-26T16:46:20.020Z,89.77
2019-02-26T16:48:53.165Z,89.53
2019-02-26T16:51:21.778Z,90.10
2019-02-26T16:53:51.723Z,94.57
2019-02-26T16:56:22.472Z,95.53
2019-02-26T16:58:52.314Z,91.47
2019-02-26T17:01:22.554Z,92.77
2019-02-26T17:03:53.999Z,94.23
2019-02-26T17:06:24.088Z,94.60
2019-02-26T17:08:53.773Z,95.17
2019-02-26T17:11:23.531Z,91.70
2019-02-26T17:13:53.241Z,88.13
2019-02-26T17:16:22.916Z,95.00
2019-02-26T17:18:54.222Z,100.00
2019-02-26T17:21:25.327Z,94.80
2019-02-26T17:23:55.078Z,88.57
2019-02-26T17:26:24.824Z,92.43
2019-02-26T17:28:54.547Z,93.87
2019-02-26T17:31:24.225Z,87.87
2019-02-26T17:33:53.937Z,89.80
2019-02-26T17:36:23.606Z,89.27
2019-02-26T17:38:53.282Z,92.00
2019-02-26T17:41:22.980Z,102.47
2019-02-26T17:43:56.818Z,102.03
2019-02-26T17:46:28.093Z,104.40
2019-02-26T17:48:57.775Z,102.73
2019-02-26T17:51:27.451Z,96.30
2019-02-26T17:53:57.121Z,99.93
2019-02-26T17:56:27.182Z,94.83
2019-02-26T17:58:56.911Z,87.67
2019-02-26T18:01:26.670Z,84.40
2019-02-26T18:03:56.500Z,80.80
2019-02-26T18:06:26.257Z,80.73
2019-02-26T18:08:56.490Z,76.83
2019-02-26T18:11:26.785Z,77.73
2019-02-26T18:13:57.801Z,78.27
2019-02-26T18:16:27.854Z,77.77
2019-02-26T18:18:59.509Z,75.40
2019-02-26T18:21:28.955Z,73.17
2019-02-26T18:23:58.975Z,78.93
2019-02-26T18:26:28.808Z,73.20
2019-02-26T18:28:58.482Z,75.80
2019-02-26T18:31:31.003Z,78.10
2019-02-26T18:34:00.265Z,78.10
2019-02-26T18:36:29.934Z,77.27
2019-02-26T18:38:59.631Z,76.63
2019-02-26T18:41:30.545Z,78.03
2019-02-26T18:44:02.905Z,73.60
2019-02-26T18:46:33.740Z,73.83
2019-02-26T18:49:05.379Z,78.00
2019-02-26T18:51:36.398Z,76.13
2019-02-26T18:54:06.546Z,80.20
2019-02-26T18:56:38.675Z,74.07
2019-02-26T18:59:07.641Z,75.43
2019-02-26T19:01:37.344Z,74.47
2019-02-26T19:04:07.117Z,80.47
2019-02-26T19:06:36.799Z,79.53
2019-02-26T19:09:11.472Z,80.67
2019-02-26T19:11:40.975Z,78.93
2019-02-26T19:14:10.980Z,80.67
2019-02-26T19:16:40.662Z,78.33
2019-02-26T19:19:10.445Z,79.63
2019-02-26T19:21:40.122Z,81.10
2019-02-26T19:24:10.129Z,85.80
2019-02-26T19:26:41.612Z,83.47
2019-02-26T19:29:11.312Z,87.30
2019-02-26T19:31:42.752Z,87.23
2019-02-26T19:34:12.733Z,91.30
2019-02-26T19:36:45.823Z,88.93
2019-02-26T19:39:16.593Z,86.10
2019-02-26T19:41:46.362Z,88.20
2019-02-26T19:44:16.059Z,90.33
2019-02-26T19:46:49.416Z,91.03
2019-02-26T19:49:17.152Z,86.07
2019-02-26T19:51:46.824Z,83.07
2019-02-26T19:54:18.390Z,82.67
2019-02-26T19:56:48.093Z,80.87
2019-02-26T19:59:19.402Z,79.80
2019-02-26T20:01:51.808Z,76.13
2019-02-26T20:04:21.677Z,74.60
2019-02-26T20:06:53.186Z,78.80
2019-02-26T20:09:25.940Z,82.73
2019-02-26T20:11:56.247Z,76.33
2019-02-26T20:14:26.705Z,83.47
2019-02-26T20:16:58.040Z,77.20
2019-02-26T20:19:31.644Z,73.67
2019-02-26T20:22:00.785Z,72.07
2019-02-26T20:24:30.530Z,78.63
2019-02-26T20:27:00.226Z,77.07
2019-02-26T20:29:29.969Z,75.03
2019-02-26T20:31:59.668Z,71.63
2019-02-26T20:34:29.373Z,76.13
2019-02-26T20:36:59.058Z,75.40
2019-02-26T20:39:28.742Z,75.73
2019-02-26T20:42:02.372Z,75.97
2019-02-26T20:44:32.047Z,73.57
2019-02-26T20:47:05.273Z,82.13
2019-02-26T20:49:35.855Z,87.90
2019-02-26T20:52:05.831Z,77.13
2019-02-26T20:54:37.005Z,82.43
2019-02-26T20:57:08.995Z,83.73
2019-02-26T20:59:40.517Z,82.10
2019-02-26T21:02:11.520Z,79.20
2019-02-26T21:04:41.214Z,75.87
2019-02-26T21:07:11.367Z,77.53
2019-02-26T21:09:41.652Z,77.77
2019-02-26T21:12:11.416Z,81.20
2019-02-26T21:14:42.041Z,80.40
2019-02-26T21:17:11.722Z,81.20
2019-02-26T21:19:41.418Z,77.40
2019-02-26T21:22:11.089Z,74.50
2019-02-26T21:24:40.761Z,73.30
2019-02-26T21:27:10.445Z,79.20
2019-02-26T21:29:41.544Z,85.27
2019-02-26T21:32:11.570Z,85.53
2019-02-26T21:34:42.899Z,80.17
2019-02-26T21:37:12.718Z,80.13
2019-02-26T21:39:43.755Z,79.70
2019-02-26T21:42:16.313Z,78.27
2019-02-26T21:44:45.992Z,76.17
2019-02-26T21:47:15.863Z,78.83
2019-02-26T21:49:46.519Z,81.37
2019-02-26T21:52:17.047Z,79.10
2019-02-26T21:54:46.718Z,79.63
2019-02-26T21:57:16.423Z,73.80
2019-02-26T21:59:50.671Z,78.83
2019-02-26T22:02:21.840Z,78.73
2019-02-26T22:04:51.511Z,76.03
2019-02-26T22:07:23.003Z,74.67
2019-02-26T22:09:52.700Z,75.30
2019-02-26T22:12:24.110Z,77.20
2019-02-26T22:14:54.195Z,70.13
2019-02-26T22:17:25.310Z,69.07
2019-02-26T22:19:56.238Z,71.07
2019-02-26T22:22:26.690Z,76.00
2019-02-26T22:24:57.878Z,74.67
2019-02-26T22:27:27.830Z,71.07
2019-02-26T22:29:57.655Z,78.53
2019-02-26T22:32:27.343Z,74.73
2019-02-26T22:34:57.803Z,76.70
2019-02-26T22:37:27.457Z,68.10
2019-02-26T22:39:57.169Z,70.73
2019-02-26T22:42:26.844Z,71.00
2019-02-26T22:44:56.519Z,73.30
2019-02-26T22:47:26.213Z,73.67
2019-02-26T22:49:55.874Z,73.63
2019-02-26T22:52:25.546Z,73.97
2019-02-26T22:54:55.237Z,69.40
2019-02-26T22:57:24.890Z,72.70
2019-02-26T22:59:54.558Z,71.83
2019-02-26T23:02:26.120Z,73.57
2019-02-26T23:04:57.286Z,67.40
2019-02-26T23:07:27.032Z,72.03
2019-02-26T23:09:56.733Z,69.83
2019-02-26T23:12:28.025Z,72.37
2019-02-26T23:14:58.265Z,70.33
2019-02-26T23:17:29.356Z,76.57
2019-02-26T23:19:59.112Z,84.63
2019-02-26T23:22:30.435Z,76.40
2019-02-26T23:25:00.877Z,75.80
2019-02-26T23:27:31.777Z,73.07
2019-02-26T23:30:02.143Z,73.27
2019-02-26T23:32:31.854Z,71.77
2019-02-26T23:35:08.926Z,75.27
2019-02-26T23:37:38.734Z,75.27
2019-02-26T23:40:13.217Z,73.60
2019-02-26T23:42:43.421Z,71.73
2019-02-26T23:45:15.481Z,74.33
2019-02-26T23:47:45.247Z,73.33
2019-02-26T23:50:15.431Z,77.13
2019-02-26T23:52:45.143Z,76.80
2019-02-26T23:55:16.042Z,74.73
2019-02-26T23:57:45.736Z,72.60
